Time;durP1;ratioP1;P1;durP2;ratioP2;P2;SDS_P1;SDS_P2;PMS_P1;PMS_P2;Temp;Humidity;BMP_temperature;BMP_pressure;BME280_temperature;BME280_humidity;BME280_pressure;Samples;Min_cycle;Max_cycle;Signal;HPM_P1;HPM_P2
2021/03/01 00:02:25;;;;;;;3.72;3.53;;;18.30;64.60;;;;;;5111684;28;20019;-33
2021/03/01 00:04:50;;;;;;;3.78;3.47;;;18.30;64.70;;;;;;5108652;28;20027;-36
2021/03/01 00:07:16;;;;;;;3.55;3.35;;;18.30;64.70;;;;;;5108246;28;20048;-33
2021/03/01 00:09:42;;;;;;;3.30;3.10;;;18.30;64.60;;;;;;5107451;28;20035;-33
2021/03/01 00:12:07;;;;;;;3.70;3.50;;;18.30;64.60;;;;;;5108766;28;20035;-36
2021/03/01 00:14:33;;;;;;;3.45;3.25;;;18.30;64.40;;;;;;5111476;28;20494;-34
2021/03/01 00:16:58;;;;;;;3.33;3.13;;;18.30;64.30;;;;;;5099905;28;20043;-33
2021/03/01 00:19:24;;;;;;;3.88;3.67;;;18.30;64.30;;;;;;5103438;28;20032;-34
2021/03/01 00:21:50;;;;;;;3.47;3.28;;;18.30;64.40;;;;;;5104402;28;20028;-37
2021/03/01 00:24:15;;;;;;;3.60;3.30;;;18.30;64.50;;;;;;5107081;28;20496;-36
2021/03/01 00:26:41;;;;;;;3.40;3.20;;;18.30;64.60;;;;;;5098036;28;20032;-36
2021/03/01 00:29:06;;;;;;;3.25;3.08;;;18.30;64.40;;;;;;5110989;28;20317;-34
2021/03/01 00:31:32;;;;;;;3.72;3.40;;;18.30;64.40;;;;;;5101994;28;20440;-33
2021/03/01 00:33:58;;;;;;;3.60;3.40;;;18.30;64.30;;;;;;5096089;28;20039;-36
2021/03/01 00:36:23;;;;;;;3.45;3.28;;;18.30;64.40;;;;;;5094763;28;20477;-31
2021/03/01 00:38:49;;;;;;;3.55;3.35;;;18.30;64.30;;;;;;5100053;28;20035;-35
2021/03/01 00:41:15;;;;;;;3.17;3.03;;;18.30;64.20;;;;;;5109816;28;20031;-36
2021/03/01 00:43:40;;;;;;;3.30;3.03;;;18.30;64.10;;;;;;5108698;28;20024;-36
2021/03/01 00:46:06;;;;;;;3.33;3.13;;;18.30;64.00;;;;;;5108191;28;20027;-35
2021/03/01 00:48:31;;;;;;;2.92;2.70;;;18.40;63.70;;;;;;5106057;28;20076;-36
2021/03/01 00:50:57;;;;;;;2.50;2.40;;;18.40;63.50;;;;;;5100519;28;20482;-32
2021/03/01 00:53:23;;;;;;;2.95;2.85;;;18.40;63.40;;;;;;5111103;28;20027;-34
2021/03/01 00:55:49;;;;;;;3.08;2.88;;;18.50;63.20;;;;;;5106381;28;20496;-33
2021/03/01 00:58:16;;;;;;;2.70;2.60;;;18.50;62.90;;;;;;5108931;28;20031;-33
2021/03/01 01:00:41;;;;;;;2.58;2.38;;;18.50;62.80;;;;;;5108083;28;20477;-32
2021/03/01 01:03:07;;;;;;;2.55;2.45;;;18.50;62.80;;;;;;5107824;28;20037;-34
2021/03/01 01:05:32;;;;;;;2.63;2.53;;;18.50;62.70;;;;;;5097180;28;20032;-33
2021/03/01 01:07:58;;;;;;;2.85;2.75;;;18.50;62.70;;;;;;5109588;28;20099;-33
2021/03/01 01:10:23;;;;;;;2.53;2.42;;;18.50;62.70;;;;;;5107673;28;20040;-33
2021/03/01 01:12:49;;;;;;;2.67;2.58;;;18.50;62.80;;;;;;5106049;28;20028;-32
2021/03/01 01:15:15;;;;;;;2.47;2.38;;;18.50;62.70;;;;;;5109616;28;20020;-35
2021/03/01 01:17:40;;;;;;;2.60;2.50;;;18.50;62.70;;;;;;5110230;28;20472;-32
2021/03/01 01:20:10;;;;;;;2.70;2.60;;;18.60;62.60;;;;;;5114885;28;20020;-30
2021/03/01 01:22:35;;;;;;;2.88;2.78;;;18.60;62.40;;;;;;5111124;28;20457;-36
2021/03/01 01:25:01;;;;;;;2.85;2.75;;;18.50;62.70;;;;;;5110707;28;20059;-38
2021/03/01 01:27:27;;;;;;;2.50;2.40;;;18.50;62.70;;;;;;5099419;28;20026;-37
2021/03/01 01:29:52;;;;;;;3.00;2.80;;;18.50;62.70;;;;;;5111018;28;20402;-32
2021/03/01 01:32:18;;;;;;;2.75;2.58;;;18.40;63.00;;;;;;5114898;28;20028;-37
2021/03/01 01:34:43;;;;;;;2.60;2.40;;;18.50;63.00;;;;;;5111879;28;20422;-33
2021/03/01 01:37:09;;;;;;;2.65;2.47;;;18.50;63.00;;;;;;5110416;28;20057;-32
2021/03/01 01:39:35;;;;;;;2.60;2.50;;;18.40;62.90;;;;;;5111493;28;20030;-36
2021/03/01 01:42:00;;;;;;;2.55;2.38;;;18.50;62.80;;;;;;5109678;28;20454;-34
2021/03/01 01:44:26;;;;;;;2.53;2.42;;;18.50;63.00;;;;;;5110157;28;20024;-34
2021/03/01 01:46:51;;;;;;;2.55;2.45;;;18.30;63.20;;;;;;5109454;28;20032;-36
2021/03/01 01:49:17;;;;;;;2.67;2.58;;;18.30;63.20;;;;;;5106182;28;20032;-33
2021/03/01 01:51:43;;;;;;;2.75;2.65;;;18.40;63.40;;;;;;5110998;28;20028;-36
2021/03/01 01:54:09;;;;;;;2.17;2.08;;;18.40;63.20;;;;;;5109633;28;20027;-35
2021/03/01 01:56:34;;;;;;;2.60;2.50;;;18.40;63.10;;;;;;5112041;28;20061;-38
2021/03/01 01:59:00;;;;;;;3.08;2.88;;;18.40;63.20;;;;;;5100081;28;20071;-35
2021/03/01 02:01:26;;;;;;;2.35;2.25;;;18.40;63.10;;;;;;5106036;28;20020;-35
2021/03/01 02:04:09;;;;;;;2.38;2.28;;;18.40;63.20;;;;;;5111092;28;20077;-34
2021/03/01 02:07:02;;;;;;;2.80;2.70;;;18.30;63.20;;;;;;5107973;28;20057;-40
2021/03/01 02:09:39;;;;;;;2.80;2.70;;;18.30;63.60;;;;;;5109234;28;20046;-32
2021/03/01 02:12:05;;;;;;;2.45;2.35;;;18.30;63.70;;;;;;5105759;28;20035;-33
2021/03/01 02:14:55;;;;;;;2.72;2.63;;;18.30;63.70;;;;;;5114288;28;20019;-32
2021/03/01 02:17:21;;;;;;;2.50;2.40;;;18.30;63.40;;;;;;5111320;28;20024;-35
2021/03/01 02:19:47;;;;;;;2.95;2.85;;;18.30;63.50;;;;;;5110278;28;20034;-32
2021/03/01 02:22:12;;;;;;;2.42;2.33;;;18.30;63.60;;;;;;5111071;28;20032;-32
2021/03/01 02:24:47;;;;;;;2.50;2.40;;;18.30;63.40;;;;;;5109106;28;20030;-34
2021/03/01 02:27:13;;;;;;;2.75;2.55;;;18.30;63.40;;;;;;5097540;28;20450;-31
2021/03/01 02:29:39;;;;;;;3.05;2.85;;;18.30;63.60;;;;;;5111632;28;20043;-36
2021/03/01 02:32:05;;;;;;;3.15;2.95;;;18.20;63.80;;;;;;5093956;28;20028;-32
2021/03/01 02:34:32;;;;;;;2.97;2.78;;;18.20;63.90;;;;;;5104738;28;20039;-35
2021/03/01 02:36:59;;;;;;;2.80;2.70;;;18.10;64.00;;;;;;5094195;28;20110;-32
2021/03/01 02:39:26;;;;;;;2.60;2.50;;;18.10;64.00;;;;;;5108956;28;20019;-34
2021/03/01 02:41:52;;;;;;;2.47;2.33;;;18.10;63.90;;;;;;5097450;28;20028;-32
2021/03/01 02:44:18;;;;;;;2.40;2.30;;;18.10;63.60;;;;;;5111108;28;20038;-33
2021/03/01 02:46:45;;;;;;;2.55;2.45;;;18.10;63.70;;;;;;5107145;28;20047;-35
2021/03/01 02:49:10;;;;;;;2.58;2.47;;;18.20;63.70;;;;;;5106346;28;20027;-32
2021/03/01 02:51:36;;;;;;;2.97;2.78;;;18.10;63.60;;;;;;5108488;28;20019;-34
2021/03/01 02:54:03;;;;;;;2.90;2.75;;;18.10;63.60;;;;;;5109150;28;20024;-31
2021/03/01 02:56:28;;;;;;;2.65;2.55;;;18.10;63.80;;;;;;5106368;28;20027;-34
2021/03/01 02:58:54;;;;;;;3.00;2.85;;;18.10;63.70;;;;;;5108066;28;20035;-33
2021/03/01 03:01:19;;;;;;;2.95;2.75;;;18.00;63.80;;;;;;5107666;28;20521;-35
2021/03/01 03:03:45;;;;;;;2.92;2.72;;;18.10;63.90;;;;;;5104654;28;20031;-34
2021/03/01 03:06:18;;;;;;;2.65;2.45;;;18.00;63.90;;;;;;5106447;28;20018;-33
2021/03/01 03:08:44;;;;;;;3.03;2.83;;;18.00;64.10;;;;;;5096691;28;20043;-30
2021/03/01 03:11:10;;;;;;;2.15;2.05;;;18.00;64.20;;;;;;5109443;28;20122;-34
2021/03/01 03:13:36;;;;;;;2.90;2.70;;;18.00;64.20;;;;;;5109152;28;20076;-32
2021/03/01 03:16:02;;;;;;;2.42;2.33;;;18.00;64.20;;;;;;5105365;28;20024;-36
2021/03/01 03:18:27;;;;;;;2.60;2.50;;;18.00;64.10;;;;;;5099251;28;20024;-32
2021/03/01 03:20:53;;;;;;;2.78;2.58;;;18.00;64.20;;;;;;5090946;28;20406;-35
2021/03/01 03:23:18;;;;;;;2.17;2.08;;;17.90;64.10;;;;;;5111647;28;20201;-32
2021/03/01 03:25:44;;;;;;;2.40;2.25;;;17.90;64.30;;;;;;5103333;28;20024;-34
2021/03/01 03:28:10;;;;;;;2.80;2.60;;;17.90;64.30;;;;;;5103104;28;20078;-33
2021/03/01 03:30:35;;;;;;;2.70;2.50;;;17.90;64.80;;;;;;5109787;28;20073;-33
2021/03/01 03:33:03;;;;;;;2.70;2.50;;;17.80;64.80;;;;;;5109380;28;20024;-36
2021/03/01 03:35:28;;;;;;;2.45;2.35;;;17.90;64.60;;;;;;5106927;28;20489;-32
2021/03/01 03:38:04;;;;;;;2.38;2.28;;;17.90;64.50;;;;;;5108275;28;20030;-31
2021/03/01 03:40:30;;;;;;;2.50;2.40;;;17.90;64.40;;;;;;5107696;28;20042;-35
2021/03/01 03:42:57;;;;;;;3.05;2.80;;;17.90;64.60;;;;;;5105798;28;20024;-33
2021/03/01 03:45:23;;;;;;;2.67;2.47;;;17.90;65.50;;;;;;5108200;28;20047;-31
2021/03/01 03:47:50;;;;;;;2.28;2.17;;;17.90;64.60;;;;;;5110515;28;20023;-30
2021/03/01 03:50:16;;;;;;;2.50;2.40;;;17.90;64.70;;;;;;5110910;28;20019;-32
2021/03/01 03:52:42;;;;;;;2.50;2.40;;;17.80;64.70;;;;;;5107229;28;20027;-31
2021/03/01 03:55:10;;;;;;;2.13;2.03;;;17.90;64.80;;;;;;5106850;28;20358;-36
2021/03/01 03:57:37;;;;;;;2.50;2.30;;;17.90;64.60;;;;;;5109941;28;20028;-36
2021/03/01 04:00:05;;;;;;;2.22;2.10;;;17.90;64.60;;;;;;5108548;28;20012;-36
2021/03/01 04:02:30;;;;;;;2.40;2.30;;;17.90;64.40;;;;;;5108191;28;20067;-37
2021/03/01 04:04:56;;;;;;;2.50;2.40;;;18.00;64.20;;;;;;5087972;28;20574;-30
2021/03/01 04:07:22;;;;;;;2.10;2.00;;;18.00;64.30;;;;;;5108815;28;20034;-33
2021/03/01 04:09:47;;;;;;;2.17;2.08;;;18.00;64.20;;;;;;5108961;28;20046;-33
2021/03/01 04:12:14;;;;;;;2.25;2.15;;;18.00;64.00;;;;;;5107411;28;20054;-35
2021/03/01 04:14:39;;;;;;;2.30;2.20;;;18.00;64.00;;;;;;5109764;28;20119;-35
2021/03/01 04:17:07;;;;;;;2.35;2.25;;;17.90;64.30;;;;;;5107310;28;20452;-33
2021/03/01 04:19:33;;;;;;;2.33;2.22;;;17.90;64.50;;;;;;5106313;28;20042;-34
2021/03/01 04:21:59;;;;;;;2.20;2.10;;;17.90;64.50;;;;;;5106347;28;20020;-32
2021/03/01 04:24:25;;;;;;;2.72;2.00;;;17.90;63.80;;;;;;5105411;28;20474;-35
2021/03/01 04:26:50;;;;;;;1.85;1.75;;;17.90;64.00;;;;;;5107605;28;20028;-31
2021/03/01 04:29:17;;;;;;;2.25;2.15;;;17.90;64.10;;;;;;5107919;28;20054;-35
2021/03/01 04:31:45;;;;;;;2.35;2.25;;;17.90;64.20;;;;;;5107233;28;20027;-32
2021/03/01 04:34:10;;;;;;;2.33;2.22;;;17.80;64.30;;;;;;5106780;28;20074;-36
2021/03/01 04:36:36;;;;;;;2.00;1.90;;;17.80;64.50;;;;;;5108575;28;20047;-32
2021/03/01 04:39:01;;;;;;;2.22;2.00;;;17.80;64.50;;;;;;5108721;28;20050;-30
2021/03/01 04:41:27;;;;;;;2.25;2.15;;;17.80;64.40;;;;;;5103850;28;20175;-30
2021/03/01 04:43:53;;;;;;;2.05;1.95;;;17.70;64.10;;;;;;5108666;28;20031;-35
2021/03/01 04:46:18;;;;;;;2.28;2.15;;;17.80;64.60;;;;;;5108124;28;20035;-33
2021/03/01 04:48:44;;;;;;;2.55;2.17;;;17.70;64.70;;;;;;5109832;28;20532;-33
2021/03/01 04:51:10;;;;;;;2.13;2.03;;;17.80;64.50;;;;;;5111172;28;20044;-32
2021/03/01 04:53:35;;;;;;;1.80;1.70;;;17.80;64.60;;;;;;5097177;28;20076;-34
2021/03/01 04:56:04;;;;;;;2.30;2.20;;;17.90;64.60;;;;;;5111543;28;20070;-30
2021/03/01 04:58:29;;;;;;;2.50;2.30;;;17.90;64.80;;;;;;5110856;28;20028;-34
2021/03/01 05:00:55;;;;;;;2.00;1.90;;;17.80;64.90;;;;;;5110449;28;20028;-33
2021/03/01 05:03:20;;;;;;;1.88;1.77;;;17.70;65.20;;;;;;5110604;28;20032;-31
2021/03/01 05:05:46;;;;;;;2.13;2.03;;;17.70;65.30;;;;;;5112849;28;20102;-31
2021/03/01 05:08:12;;;;;;;2.10;2.00;;;17.70;65.20;;;;;;5111831;28;20046;-32
2021/03/01 05:10:39;;;;;;;2.10;2.00;;;17.70;65.10;;;;;;5112511;28;20027;-31
2021/03/01 05:13:04;;;;;;;2.25;2.15;;;17.70;65.10;;;;;;5112597;28;20035;-35
2021/03/01 05:15:30;;;;;;;2.13;1.90;;;17.70;65.00;;;;;;5108286;28;20020;-29
2021/03/01 05:17:59;;;;;;;2.28;2.17;;;17.70;64.90;;;;;;5111553;28;20038;-32
2021/03/01 05:20:25;;;;;;;1.95;1.85;;;17.70;65.00;;;;;;5109537;28;20027;-35
2021/03/01 05:22:51;;;;;;;2.42;2.22;;;17.70;64.70;;;;;;5112354;28;20024;-32
2021/03/01 05:25:16;;;;;;;2.20;2.00;;;17.80;64.60;;;;;;5111776;28;20027;-32
2021/03/01 05:27:42;;;;;;;1.50;1.45;;;17.80;64.30;;;;;;5111717;28;20036;-34
2021/03/01 05:30:08;;;;;;;2.33;1.75;;;17.80;64.40;;;;;;5111103;28;20052;-38
2021/03/01 05:32:34;;;;;;;1.88;1.73;;;17.80;64.40;;;;;;5114579;27;20016;-30
2021/03/01 05:35:00;;;;;;;1.70;1.60;;;17.80;64.40;;;;;;5113380;28;20436;-34
2021/03/01 05:37:26;;;;;;;1.98;1.88;;;17.80;64.40;;;;;;5111023;28;20024;-33
2021/03/01 05:39:51;;;;;;;2.00;1.90;;;17.80;64.40;;;;;;5111628;28;20030;-30
2021/03/01 05:42:18;;;;;;;1.75;1.65;;;17.80;64.30;;;;;;5110529;28;20032;-35
2021/03/01 05:44:43;;;;;;;1.90;1.80;;;17.80;64.00;;;;;;5112362;27;20063;-32
2021/03/01 05:47:09;;;;;;;2.10;2.00;;;17.80;64.00;;;;;;5114205;28;20039;-30
2021/03/01 05:49:39;;;;;;;2.10;2.00;;;17.80;64.10;;;;;;5111238;28;20455;-31
2021/03/01 05:52:05;;;;;;;1.90;1.80;;;17.70;64.30;;;;;;5111993;28;20030;-31
2021/03/01 05:54:32;;;;;;;1.65;1.55;;;17.70;64.40;;;;;;5109462;28;20027;-32
2021/03/01 05:56:58;;;;;;;1.83;1.73;;;17.70;64.70;;;;;;5094275;28;20016;-34
2021/03/01 05:59:23;;;;;;;1.77;1.67;;;17.80;64.20;;;;;;5113740;28;20020;-31
2021/03/01 06:01:49;;;;;;;1.92;1.83;;;17.70;64.70;;;;;;5109489;28;20510;-33
2021/03/01 06:04:14;;;;;;;3.45;2.10;;;17.70;64.30;;;;;;5111104;28;20019;-34
2021/03/01 06:06:40;;;;;;;1.92;1.83;;;17.70;64.80;;;;;;5111824;28;20020;-38
2021/03/01 06:09:06;;;;;;;2.17;2.05;;;17.70;66.10;;;;;;5109654;28;20032;-30
2021/03/01 06:11:31;;;;;;;2.40;2.30;;;17.60;64.90;;;;;;5114449;27;20028;-30
2021/03/01 06:14:01;;;;;;;2.00;1.90;;;17.60;64.80;;;;;;5111944;28;20092;-32
2021/03/01 06:16:28;;;;;;;1.67;1.58;;;17.60;64.80;;;;;;5109037;28;20111;-35
2021/03/01 06:18:54;;;;;;;2.58;1.95;;;17.60;65.10;;;;;;5110745;28;20039;-30
2021/03/01 06:21:22;;;;;;;2.22;2.13;;;17.50;65.70;;;;;;5110096;28;20460;-34
2021/03/01 06:23:48;;;;;;;2.10;2.00;;;17.60;65.80;;;;;;5106360;28;20421;-34
2021/03/01 06:26:24;;;;;;;2.03;1.88;;;17.60;65.70;;;;;;5113012;28;20023;-33
2021/03/01 06:28:51;;;;;;;1.83;1.73;;;17.60;66.30;;;;;;5103102;28;20785;-32
2021/03/01 06:31:36;;;;;;;2.03;1.92;;;17.60;66.60;;;;;;5098989;28;20102;-29
2021/03/01 06:34:17;;;;;;;2.03;1.92;;;17.70;66.10;;;;;;5097307;28;20027;-35
2021/03/01 06:36:59;;;;;;;2.10;1.88;;;17.70;66.50;;;;;;5100716;28;20055;-29
2021/03/01 06:39:46;;;;;;;2.40;2.30;;;17.70;66.50;;;;;;5096836;28;20393;-39
2021/03/01 06:42:18;;;;;;;2.70;2.50;;;17.70;68.50;;;;;;5103618;28;20028;-31
2021/03/01 06:44:44;;;;;;;3.08;2.33;;;17.60;68.10;;;;;;5094824;28;20039;-31
2021/03/01 06:47:10;;;;;;;2.28;2.15;;;17.60;67.60;;;;;;5097442;28;20497;-33
2021/03/01 06:49:36;;;;;;;2.83;2.42;;;17.60;66.70;;;;;;5096213;28;20050;-34
2021/03/01 06:52:02;;;;;;;3.60;2.40;;;17.60;67.30;;;;;;5093028;28;20505;-33
2021/03/01 06:54:27;;;;;;;2.65;2.45;;;17.60;67.80;;;;;;5099824;28;20040;-32
2021/03/01 06:56:53;;;;;;;4.07;2.53;;;17.60;67.90;;;;;;5106655;28;20048;-32
2021/03/01 06:59:19;;;;;;;4.20;2.50;;;17.60;69.10;;;;;;5105140;28;20044;-34
2021/03/01 07:01:48;;;;;;;2.80;2.60;;;17.70;67.30;;;;;;5102547;28;20054;-30
2021/03/01 07:04:24;;;;;;;2.78;2.58;;;17.70;68.80;;;;;;5107762;28;20047;-32
2021/03/01 07:06:50;;;;;;;2.72;2.53;;;17.60;68.90;;;;;;5107583;28;20063;-32
2021/03/01 07:09:29;;;;;;;3.83;2.35;;;17.50;68.40;;;;;;5092657;27;20056;-32
2021/03/01 07:11:55;;;;;;;21.15;3.63;;;17.50;68.20;;;;;;5107651;28;20409;-34
2021/03/01 07:14:25;;;;;;;3.78;2.55;;;17.50;68.40;;;;;;5111720;28;20031;-32
2021/03/01 07:16:52;;;;;;;2.40;2.30;;;17.50;68.30;;;;;;5108000;28;20070;-34
2021/03/01 07:19:19;;;;;;;2.33;2.22;;;17.50;67.90;;;;;;5107178;28;20015;-32
2021/03/01 07:21:50;;;;;;;2.88;2.67;;;17.50;67.80;;;;;;5100081;28;20027;-29
2021/03/01 07:24:19;;;;;;;2.83;1.98;;;17.50;67.70;;;;;;5109231;28;20102;-29
2021/03/01 07:26:45;;;;;;;4.65;2.40;;;17.50;67.40;;;;;;5110462;28;20032;-33
2021/03/01 07:29:12;;;;;;;2.58;2.45;;;17.50;67.50;;;;;;5110222;28;20048;-30
2021/03/01 07:31:57;;;;;;;5.07;2.30;;;17.50;67.30;;;;;;5108397;28;20023;-37
2021/03/01 07:34:23;;;;;;;2.67;2.47;;;17.50;67.00;;;;;;5109553;28;20106;-32
2021/03/01 07:36:49;;;;;;;2.85;2.05;;;17.50;67.10;;;;;;5109666;28;20134;-35
2021/03/01 07:39:15;;;;;;;2.30;2.20;;;17.50;66.90;;;;;;5109414;28;20076;-29
2021/03/01 07:41:41;;;;;;;2.40;2.20;;;17.50;66.70;;;;;;5109032;28;20027;-34
2021/03/01 07:44:06;;;;;;;3.60;2.25;;;17.50;66.40;;;;;;5111470;28;20099;-31
2021/03/01 07:46:39;;;;;;;3.67;2.10;;;17.40;66.50;;;;;;5108799;28;20443;-32
2021/03/01 07:49:05;;;;;;;2.08;1.90;;;17.60;66.60;;;;;;5113776;27;20043;-31
2021/03/01 07:51:47;;;;;;;5.97;2.42;;;17.60;66.00;;;;;;5109557;28;20106;-34
2021/03/01 07:54:16;;;;;;;1.90;1.80;;;17.60;66.50;;;;;;5095581;28;20055;-35
2021/03/01 07:56:42;;;;;;;2.58;2.30;;;17.60;66.50;;;;;;5110507;28;20102;-33
2021/03/01 07:59:09;;;;;;;4.25;1.90;;;17.50;66.50;;;;;;5109273;28;20114;-31
2021/03/01 08:01:35;;;;;;;3.08;2.20;;;17.50;66.80;;;;;;5108543;28;20404;-35
2021/03/01 08:04:00;;;;;;;2.67;2.20;;;17.50;66.70;;;;;;5109150;28;20059;-32
2021/03/01 08:06:55;;;;;;;4.53;2.03;;;17.50;66.50;;;;;;5108065;28;20513;-34
2021/03/01 08:09:50;;;;;;;2.10;2.00;;;17.50;65.20;;;;;;5095272;28;20062;-33
2021/03/01 08:12:27;;;;;;;2.22;1.85;;;17.50;65.50;;;;;;5101053;28;20115;-34
2021/03/01 08:14:53;;;;;;;3.33;1.83;;;17.40;65.00;;;;;;5107706;28;20109;-31
2021/03/01 08:17:24;;;;;;;2.17;2.08;;;17.40;65.30;;;;;;5109649;28;20137;-32
2021/03/01 08:19:50;;;;;;;1.77;1.67;;;17.40;65.60;;;;;;5105019;28;20531;-34
2021/03/01 08:22:16;;;;;;;2.95;2.20;;;17.50;65.00;;;;;;5107286;28;20099;-29
2021/03/01 08:24:56;;;;;;;2.60;1.95;;;17.50;65.00;;;;;;5113232;28;20024;-34
2021/03/01 08:27:24;;;;;;;2.05;1.83;;;17.50;65.00;;;;;;5111133;28;20042;-36
2021/03/01 08:30:22;;;;;;;2.15;2.00;;;17.40;64.70;;;;;;5107800;28;20115;-39
2021/03/01 08:33:09;;;;;;;2.13;2.03;;;17.40;64.70;;;;;;5108611;28;20016;-34
2021/03/01 08:35:39;;;;;;;5.32;2.30;;;17.40;64.60;;;;;;5114844;28;20027;-37
2021/03/01 08:38:05;;;;;;;3.42;2.30;;;17.40;64.90;;;;;;5111736;28;20460;-34
2021/03/01 08:40:30;;;;;;;4.03;1.70;;;17.40;65.00;;;;;;5109985;28;20098;-32
2021/03/01 08:42:56;;;;;;;2.33;2.13;;;17.40;65.40;;;;;;5109016;28;20022;-35
2021/03/01 08:45:31;;;;;;;2.00;1.90;;;17.50;64.80;;;;;;4750417;27;9999817;-32
2021/03/01 08:47:58;;;;;;;3.88;2.20;;;17.50;64.40;;;;;;5108243;27;20104;-35
2021/03/01 08:50:26;;;;;;;3.55;2.85;;;17.40;64.00;;;;;;5111886;28;20037;-33
2021/03/01 08:52:52;;;;;;;3.80;2.22;;;17.50;64.10;;;;;;5107239;28;20489;-39
2021/03/01 08:55:18;;;;;;;2.80;2.60;;;17.40;64.00;;;;;;5107534;28;20034;-36
2021/03/01 08:58:12;;;;;;;4.60;2.60;;;17.50;64.00;;;;;;5108507;28;20098;-34
2021/03/01 09:00:50;;;;;;;2.28;2.17;;;17.50;64.20;;;;;;5108787;28;20027;-31
2021/03/01 09:03:22;;;;;;;2.65;2.35;;;17.50;63.90;;;;;;5107894;28;20047;-30
2021/03/01 09:05:52;;;;;;;2.67;2.47;;;17.50;63.70;;;;;;5108205;28;20119;-35
2021/03/01 09:08:25;;;;;;;3.47;2.40;;;17.50;64.00;;;;;;5111561;28;20052;-39
2021/03/01 09:10:51;;;;;;;3.78;2.47;;;17.50;64.30;;;;;;5108257;28;20020;-32
2021/03/01 09:13:18;;;;;;;2.20;2.10;;;17.50;63.90;;;;;;5107906;28;20039;-30
2021/03/01 09:15:44;;;;;;;4.50;2.67;;;17.60;64.00;;;;;;5105090;28;20034;-34
2021/03/01 09:18:10;;;;;;;2.33;2.22;;;17.60;64.20;;;;;;5107703;28;20020;-34
2021/03/01 09:20:39;;;;;;;2.15;2.00;;;17.60;64.10;;;;;;5104508;28;20023;-34
2021/03/01 09:23:05;;;;;;;3.17;2.38;;;17.70;64.20;;;;;;5108129;28;20097;-34
2021/03/01 09:25:32;;;;;;;2.17;1.98;;;17.80;64.60;;;;;;5108393;28;20603;-33
2021/03/01 09:27:57;;;;;;;2.88;2.20;;;17.80;63.70;;;;;;5108496;28;20045;-37
2021/03/01 09:30:23;;;;;;;2.15;1.95;;;17.90;63.40;;;;;;5111568;28;20075;-33
2021/03/01 09:33:03;;;;;;;2.20;2.00;;;17.80;63.30;;;;;;5111155;28;20016;-34
2021/03/01 09:35:32;;;;;;;2.53;1.95;;;17.80;63.40;;;;;;5108835;28;20048;-33
2021/03/01 09:37:58;;;;;;;1.75;1.65;;;17.90;63.40;;;;;;5112416;28;20070;-30
2021/03/01 09:40:24;;;;;;;4.60;2.40;;;17.90;63.30;;;;;;5109012;28;20063;-31
2021/03/01 09:42:52;;;;;;;3.47;3.17;;;17.90;62.70;;;;;;5106029;28;20047;-35
2021/03/01 09:45:18;;;;;;;3.92;3.60;;;17.90;61.90;;;;;;5104813;28;20043;-33
2021/03/01 09:47:46;;;;;;;4.72;4.43;;;17.90;59.40;;;;;;5089100;28;20069;-40
2021/03/01 09:50:12;;;;;;;4.78;4.25;;;17.90;59.50;;;;;;5106895;28;20075;-36
2021/03/01 09:52:38;;;;;;;4.90;4.60;;;17.90;58.50;;;;;;5105725;28;20059;-35
2021/03/01 09:55:04;;;;;;;4.35;4.05;;;17.90;59.00;;;;;;5107946;28;20031;-37
2021/03/01 09:57:30;;;;;;;3.67;3.38;;;18.00;59.70;;;;;;5091032;28;20037;-29
2021/03/01 09:59:55;;;;;;;4.18;3.88;;;18.20;59.50;;;;;;5104292;28;20038;-33
2021/03/01 10:02:24;;;;;;;4.80;4.38;;;18.10;59.00;;;;;;5096677;28;20059;-30
2021/03/01 10:04:51;;;;;;;4.82;4.53;;;18.20;58.60;;;;;;5098172;28;20046;-34
2021/03/01 10:07:27;;;;;;;3.67;3.38;;;18.20;58.70;;;;;;5108527;28;20066;-33
2021/03/01 10:09:53;;;;;;;5.70;4.40;;;18.20;58.70;;;;;;5104487;28;20063;-34
2021/03/01 10:12:19;;;;;;;3.63;3.40;;;18.30;58.70;;;;;;5100175;28;20645;-36
2021/03/01 10:14:45;;;;;;;3.40;3.20;;;18.40;58.70;;;;;;5107263;27;20036;-35
2021/03/01 10:17:18;;;;;;;3.30;3.10;;;18.40;58.80;;;;;;5104224;28;20074;-38
2021/03/01 10:19:44;;;;;;;3.47;3.28;;;18.50;58.80;;;;;;5108754;28;20076;-33
2021/03/01 10:22:10;;;;;;;3.67;3.47;;;18.50;58.60;;;;;;5103922;28;20528;-35
2021/03/01 10:24:48;;;;;;;3.00;2.80;;;18.50;58.70;;;;;;5105085;28;20478;-31
2021/03/01 10:27:17;;;;;;;3.03;2.72;;;18.60;58.70;;;;;;5102837;28;20067;-33
2021/03/01 10:29:44;;;;;;;3.25;3.05;;;18.60;58.80;;;;;;5102744;28;20058;-37
2021/03/01 10:32:17;;;;;;;3.03;2.83;;;18.50;58.80;;;;;;5102564;28;20031;-37
2021/03/01 10:34:42;;;;;;;2.90;2.70;;;18.60;58.90;;;;;;4745020;28;10000530;-36
2021/03/01 10:37:12;;;;;;;2.60;2.40;;;18.60;59.00;;;;;;5101695;28;20108;-39
2021/03/01 10:39:38;;;;;;;3.05;2.72;;;18.60;59.00;;;;;;5100016;28;20439;-35
2021/03/01 10:42:12;;;;;;;2.95;2.75;;;18.70;58.90;;;;;;5101908;28;20115;-35
2021/03/01 10:44:41;;;;;;;2.53;2.33;;;18.80;59.10;;;;;;5096870;28;20024;-38
2021/03/01 10:47:18;;;;;;;2.60;2.40;;;18.70;59.40;;;;;;5105234;28;20028;-37
2021/03/01 10:49:44;;;;;;;2.40;2.30;;;18.80;59.10;;;;;;5101709;28;20124;-37
2021/03/01 10:52:10;;;;;;;2.20;2.10;;;18.70;59.10;;;;;;5099671;28;20103;-35
2021/03/01 10:54:36;;;;;;;2.40;2.25;;;18.70;59.10;;;;;;5101385;28;20055;-39
2021/03/01 10:57:02;;;;;;;2.00;1.90;;;18.70;59.20;;;;;;5098998;28;20445;-37
2021/03/01 10:59:28;;;;;;;2.15;2.05;;;18.70;59.30;;;;;;5102841;27;20077;-30
2021/03/01 11:01:53;;;;;;;2.30;2.20;;;18.70;59.40;;;;;;5095690;28;20039;-35
2021/03/01 11:04:19;;;;;;;3.30;2.20;;;18.60;59.40;;;;;;5097493;28;20039;-33
2021/03/01 11:06:48;;;;;;;3.15;2.30;;;18.60;59.60;;;;;;5097429;28;20069;-36
2021/03/01 11:09:14;;;;;;;2.00;1.90;;;18.70;59.50;;;;;;5101850;28;20075;-38
2021/03/01 11:11:40;;;;;;;2.15;2.05;;;18.70;59.60;;;;;;5101873;28;20062;-39
2021/03/01 11:14:06;;;;;;;2.05;1.95;;;18.70;60.00;;;;;;5108158;27;20078;-36
2021/03/01 11:16:32;;;;;;;1.80;1.70;;;18.90;59.70;;;;;;5104125;28;20024;-40
2021/03/01 11:18:57;;;;;;;2.03;1.92;;;18.90;59.40;;;;;;5102455;28;20110;-39
2021/03/01 11:21:23;;;;;;;1.90;1.80;;;19.00;59.00;;;;;;5098553;28;20046;-34
2021/03/01 11:23:49;;;;;;;1.52;1.42;;;19.00;59.10;;;;;;5102247;28;21019;-34
2021/03/01 11:26:14;;;;;;;1.98;1.88;;;19.00;59.10;;;;;;5100894;28;20494;-36
2021/03/01 11:28:41;;;;;;;2.00;1.90;;;19.00;59.10;;;;;;5103357;27;20089;-37
2021/03/01 11:31:06;;;;;;;1.90;1.80;;;19.10;59.50;;;;;;5101691;28;20026;-37
2021/03/01 11:33:32;;;;;;;1.98;1.73;;;19.10;58.80;;;;;;5101864;28;20020;-37
2021/03/01 11:35:57;;;;;;;1.65;1.55;;;19.20;59.40;;;;;;5103515;28;20097;-36
2021/03/01 11:38:24;;;;;;;1.90;1.80;;;19.20;58.70;;;;;;5104092;28;20061;-36
2021/03/01 11:40:50;;;;;;;2.03;1.83;;;19.20;58.60;;;;;;5108401;28;20028;-36
2021/03/01 11:43:16;;;;;;;2.30;2.10;;;19.30;58.70;;;;;;5101803;27;20055;-36
2021/03/01 11:45:42;;;;;;;2.03;1.92;;;19.20;58.60;;;;;;5099926;28;20858;-37
2021/03/01 11:48:10;;;;;;;1.85;1.75;;;19.20;58.50;;;;;;5105237;28;20405;-36
2021/03/01 11:50:36;;;;;;;2.00;1.90;;;19.30;58.60;;;;;;5100481;28;20088;-37
2021/03/01 11:53:01;;;;;;;1.95;1.80;;;19.20;58.60;;;;;;5101345;28;20106;-38
2021/03/01 11:55:27;;;;;;;2.08;1.98;;;19.20;58.70;;;;;;5098991;28;20024;-36
2021/03/01 11:57:52;;;;;;;1.33;1.30;;;19.20;58.80;;;;;;5105208;28;20459;-37
2021/03/01 12:00:18;;;;;;;2.15;1.98;;;19.10;58.90;;;;;;5098415;28;20032;-39
2021/03/01 12:02:44;;;;;;;1.83;1.73;;;19.20;59.00;;;;;;4747808;28;10001341;-44
2021/03/01 12:05:10;;;;;;;1.92;1.83;;;19.10;59.00;;;;;;5096166;28;20107;-36
2021/03/01 12:07:36;;;;;;;1.70;1.60;;;19.10;59.00;;;;;;5098266;28;20050;-33
2021/03/01 12:10:03;;;;;;;1.75;1.65;;;19.20;58.90;;;;;;5100201;28;20032;-38
2021/03/01 12:12:29;;;;;;;1.90;1.80;;;19.20;58.90;;;;;;5093437;28;20370;-37
2021/03/01 12:14:54;;;;;;;1.58;1.40;;;19.20;58.90;;;;;;5096861;28;20035;-33
2021/03/01 12:17:20;;;;;;;2.45;1.70;;;19.20;59.00;;;;;;5101305;28;20024;-40
2021/03/01 12:19:46;;;;;;;2.17;2.08;;;19.20;58.90;;;;;;5092956;28;20032;-32
2021/03/01 12:22:11;;;;;;;2.53;1.70;;;19.30;58.80;;;;;;5096247;28;20030;-32
2021/03/01 12:24:37;;;;;;;1.73;1.63;;;19.20;58.80;;;;;;5099119;28;21655;-38
2021/03/01 12:27:03;;;;;;;1.67;1.58;;;19.30;59.00;;;;;;5097856;28;20047;-35
2021/03/01 12:29:28;;;;;;;1.92;1.83;;;19.20;59.00;;;;;;5094254;28;20074;-37
2021/03/01 12:31:54;;;;;;;1.60;1.50;;;19.20;59.00;;;;;;5097933;28;20028;-33
2021/03/01 12:34:19;;;;;;;1.45;1.35;;;19.20;59.00;;;;;;5095239;28;20135;-32
2021/03/01 12:36:45;;;;;;;1.63;1.52;;;19.20;59.10;;;;;;5101497;28;20469;-33
2021/03/01 12:39:10;;;;;;;1.70;1.60;;;19.20;59.00;;;;;;5094827;28;20137;-35
2021/03/01 12:41:36;;;;;;;2.13;2.03;;;19.20;59.00;;;;;;5101624;28;20051;-34
2021/03/01 12:44:02;;;;;;;1.73;1.63;;;19.20;59.00;;;;;;5100224;28;20016;-36
2021/03/01 12:46:27;;;;;;;1.75;1.65;;;19.30;59.10;;;;;;5098295;28;20529;-36
2021/03/01 12:48:53;;;;;;;1.92;1.83;;;19.30;59.20;;;;;;5103760;28;20038;-35